Terminal Aerodrome Forecast
Issued by NWS Bismarck, ND

Home | Current Version | Previous Version | Graphics & Text | Print | Product List | Glossary On
Versions: 1 2 3 4 5 6 7 8 9 10 11 12 13 14 15 16 17 18 19 20
221
FTUS43 KBIS 020520
TAFISN
TAF
KISN 020520Z 0206/0306 VRB03KT P6SM OVC015
     FM020700 00000KT 5SM BR OVC015
     FM021200 00000KT 5SM BR OVC008
     FM021900 VRB03KT P6SM BKN025
     FM030000 19004KT P6SM BKN035=

USA.gov is the U.S. government's official web portal to all federal, state and local government web resources and services.